Terminal Aerodrome Forecast
Issued by NWS

Current Version | Previous Version | Graphics & Text | Print | Product List | Glossary On
Versions: 1 2 3 4 5 6 7 8 9 10 11 12 13
000
FTUS41 KPBZ 222325
TAFMGW
TAF
KMGW 222325Z 2300/2324 29008KT P6SM BKN035
     FM231400 29010G20KT P6SM BKN035=

USA.gov is the U.S. government's official web portal to all federal, state and local government web resources and services.